sensor_id;sensor_type;location;lat;lon;timestamp;P1;durP1;ratioP1;P2;durP2;ratioP2
63276;SDS011;49403;51.046;13.780;2022-11-20T00:00:15;28.40;;;13.45;;
63276;SDS011;49403;51.046;13.780;2022-11-20T00:00:46;25.45;;;13.50;;
63276;SDS011;49403;51.046;13.780;2022-11-20T00:01:20;28.88;;;13.48;;
63276;SDS011;49403;51.046;13.780;2022-11-20T00:01:53;30.55;;;13.82;;
63276;SDS011;49403;51.046;13.780;2022-11-20T00:02:23;29.80;;;14.13;;
63276;SDS011;49403;51.046;13.780;2022-11-20T00:02:54;29.48;;;14.15;;
63276;SDS011;49403;51.046;13.780;2022-11-20T00:03:25;29.60;;;14.02;;
63276;SDS011;49403;51.046;13.780;2022-11-20T00:03:56;27.63;;;13.43;;
63276;SDS011;49403;51.046;13.780;2022-11-20T00:04:28;31.13;;;14.00;;
63276;SDS011;49403;51.046;13.780;2022-11-20T00:04:58;28.35;;;13.43;;
63276;SDS011;49403;51.046;13.780;2022-11-20T00:05:31;31.90;;;13.65;;
63276;SDS011;49403;51.046;13.780;2022-11-20T00:06:03;28.02;;;13.52;;
63276;SDS011;49403;51.046;13.780;2022-11-20T00:06:36;29.48;;;13.98;;
63276;SDS011;49403;51.046;13.780;2022-11-20T00:07:07;28.35;;;13.82;;
63276;SDS011;49403;51.046;13.780;2022-11-20T00:07:37;27.17;;;13.65;;
63276;SDS011;49403;51.046;13.780;2022-11-20T00:08:08;29.42;;;13.40;;
63276;SDS011;49403;51.046;13.780;2022-11-20T00:08:39;28.50;;;13.75;;
63276;SDS011;49403;51.046;13.780;2022-11-20T00:09:10;26.50;;;13.63;;
63276;SDS011;49403;51.046;13.780;2022-11-20T00:09:41;30.58;;;13.45;;
63276;SDS011;49403;51.046;13.780;2022-11-20T00:10:12;26.08;;;13.63;;
63276;SDS011;49403;51.046;13.780;2022-11-20T00:10:43;31.67;;;13.40;;
63276;SDS011;49403;51.046;13.780;2022-11-20T00:11:14;29.30;;;12.60;;
63276;SDS011;49403;51.046;13.780;2022-11-20T00:11:47;28.88;;;13.43;;
63276;SDS011;49403;51.046;13.780;2022-11-20T00:12:18;30.05;;;13.13;;
63276;SDS011;49403;51.046;13.780;2022-11-20T00:12:48;27.50;;;13.48;;
63276;SDS011;49403;51.046;13.780;2022-11-20T00:13:19;34.17;;;13.90;;
63276;SDS011;49403;51.046;13.780;2022-11-20T00:13:51;29.25;;;13.88;;
63276;SDS011;49403;51.046;13.780;2022-11-20T00:14:27;29.80;;;13.30;;
63276;SDS011;49403;51.046;13.780;2022-11-20T00:14:57;26.50;;;13.10;;
63276;SDS011;49403;51.046;13.780;2022-11-20T00:15:28;29.52;;;13.70;;
63276;SDS011;49403;51.046;13.780;2022-11-20T00:15:59;28.42;;;13.63;;
63276;SDS011;49403;51.046;13.780;2022-11-20T00:16:32;29.15;;;13.52;;
63276;SDS011;49403;51.046;13.780;2022-11-20T00:17:03;27.95;;;12.82;;
63276;SDS011;49403;51.046;13.780;2022-11-20T00:17:34;28.52;;;14.05;;
63276;SDS011;49403;51.046;13.780;2022-11-20T00:18:05;28.05;;;13.48;;
63276;SDS011;49403;51.046;13.780;2022-11-20T00:18:35;31.20;;;13.43;;
63276;SDS011;49403;51.046;13.780;2022-11-20T00:19:06;30.90;;;13.63;;
63276;SDS011;49403;51.046;13.780;2022-11-20T00:19:37;29.25;;;13.43;;
63276;SDS011;49403;51.046;13.780;2022-11-20T00:20:08;26.58;;;12.95;;
63276;SDS011;49403;51.046;13.780;2022-11-20T00:20:39;24.75;;;12.27;;
63276;SDS011;49403;51.046;13.780;2022-11-20T00:21:13;26.88;;;12.10;;
63276;SDS011;49403;51.046;13.780;2022-11-20T00:21:45;28.65;;;12.25;;
63276;SDS011;49403;51.046;13.780;2022-11-20T00:22:16;23.60;;;12.43;;
63276;SDS011;49403;51.046;13.780;2022-11-20T00:22:47;25.08;;;12.15;;
63276;SDS011;49403;51.046;13.780;2022-11-20T00:23:18;24.52;;;11.93;;
63276;SDS011;49403;51.046;13.780;2022-11-20T00:23:49;26.98;;;12.57;;
63276;SDS011;49403;51.046;13.780;2022-11-20T00:24:21;25.27;;;11.73;;
63276;SDS011;49403;51.046;13.780;2022-11-20T00:24:52;27.63;;;11.85;;
63276;SDS011;49403;51.046;13.780;2022-11-20T00:25:22;27.27;;;12.60;;
63276;SDS011;49403;51.046;13.780;2022-11-20T00:25:53;28.83;;;12.20;;
63276;SDS011;49403;51.046;13.780;2022-11-20T00:26:25;24.63;;;11.93;;
63276;SDS011;49403;51.046;13.780;2022-11-20T00:26:56;25.55;;;12.60;;
63276;SDS011;49403;51.046;13.780;2022-11-20T00:27:27;26.90;;;12.70;;
63276;SDS011;49403;51.046;13.780;2022-11-20T00:27:58;28.23;;;12.40;;
63276;SDS011;49403;51.046;13.780;2022-11-20T00:28:28;27.50;;;12.70;;
63276;SDS011;49403;51.046;13.780;2022-11-20T00:29:00;26.25;;;12.18;;
63276;SDS011;49403;51.046;13.780;2022-11-20T00:29:31;26.42;;;12.60;;
63276;SDS011;49403;51.046;13.780;2022-11-20T00:30:02;25.90;;;12.40;;
63276;SDS011;49403;51.046;13.780;2022-11-20T00:30:34;27.60;;;12.52;;
63276;SDS011;49403;51.046;13.780;2022-11-20T00:31:05;26.13;;;12.18;;
63276;SDS011;49403;51.046;13.780;2022-11-20T00:31:38;29.80;;;12.30;;
63276;SDS011;49403;51.046;13.780;2022-11-20T00:32:09;27.08;;;12.50;;
63276;SDS011;49403;51.046;13.780;2022-11-20T00:32:39;27.23;;;12.60;;
63276;SDS011;49403;51.046;13.780;2022-11-20T00:33:10;29.17;;;12.60;;
63276;SDS011;49403;51.046;13.780;2022-11-20T00:33:41;28.58;;;12.88;;
63276;SDS011;49403;51.046;13.780;2022-11-20T00:34:13;27.92;;;12.90;;
63276;SDS011;49403;51.046;13.780;2022-11-20T00:34:43;26.65;;;13.02;;
63276;SDS011;49403;51.046;13.780;2022-11-20T00:35:14;25.52;;;12.73;;
63276;SDS011;49403;51.046;13.780;2022-11-20T00:35:45;27.27;;;12.48;;
63276;SDS011;49403;51.046;13.780;2022-11-20T00:36:19;27.75;;;12.60;;
63276;SDS011;49403;51.046;13.780;2022-11-20T00:36:51;29.98;;;12.60;;
63276;SDS011;49403;51.046;13.780;2022-11-20T00:37:22;25.17;;;12.20;;
63276;SDS011;49403;51.046;13.780;2022-11-20T00:37:53;27.42;;;12.38;;
63276;SDS011;49403;51.046;13.780;2022-11-20T00:38:24;28.50;;;12.57;;
63276;SDS011;49403;51.046;13.780;2022-11-20T00:38:55;27.67;;;12.50;;
63276;SDS011;49403;51.046;13.780;2022-11-20T00:39:27;30.75;;;13.13;;
63276;SDS011;49403;51.046;13.780;2022-11-20T00:39:58;28.55;;;13.18;;
63276;SDS011;49403;51.046;13.780;2022-11-20T00:40:29;27.67;;;12.25;;
63276;SDS011;49403;51.046;13.780;2022-11-20T00:41:01;31.70;;;12.70;;
63276;SDS011;49403;51.046;13.780;2022-11-20T00:41:33;30.30;;;12.25;;
63276;SDS011;49403;51.046;13.780;2022-11-20T00:42:04;30.63;;;13.40;;
63276;SDS011;49403;51.046;13.780;2022-11-20T00:42:35;26.60;;;11.98;;
63276;SDS011;49403;51.046;13.780;2022-11-20T00:43:06;26.15;;;12.05;;
63276;SDS011;49403;51.046;13.780;2022-11-20T00:43:37;26.63;;;11.80;;
63276;SDS011;49403;51.046;13.780;2022-11-20T00:44:08;25.58;;;12.48;;
63276;SDS011;49403;51.046;13.780;2022-11-20T00:44:39;26.33;;;12.57;;
63276;SDS011;49403;51.046;13.780;2022-11-20T00:45:10;25.90;;;12.77;;
63276;SDS011;49403;51.046;13.780;2022-11-20T00:45:40;24.88;;;12.40;;
63276;SDS011;49403;51.046;13.780;2022-11-20T00:46:46;25.38;;;12.02;;
63276;SDS011;49403;51.046;13.780;2022-11-20T00:47:17;28.55;;;12.60;;
63276;SDS011;49403;51.046;13.780;2022-11-20T00:47:47;28.08;;;13.18;;
63276;SDS011;49403;51.046;13.780;2022-11-20T00:48:18;27.52;;;12.80;;
63276;SDS011;49403;51.046;13.780;2022-11-20T00:48:49;22.70;;;11.77;;
63276;SDS011;49403;51.046;13.780;2022-11-20T00:49:20;24.50;;;11.95;;
63276;SDS011;49403;51.046;13.780;2022-11-20T00:49:50;25.80;;;12.75;;
63276;SDS011;49403;51.046;13.780;2022-11-20T00:50:21;24.52;;;11.98;;
63276;SDS011;49403;51.046;13.780;2022-11-20T00:50:52;22.55;;;11.73;;
63276;SDS011;49403;51.046;13.780;2022-11-20T00:51:24;27.85;;;12.07;;
63276;SDS011;49403;51.046;13.780;2022-11-20T00:51:56;27.73;;;13.07;;
63276;SDS011;49403;51.046;13.780;2022-11-20T00:52:27;23.50;;;11.68;;
63276;SDS011;49403;51.046;13.780;2022-11-20T00:52:58;24.98;;;11.82;;
63276;SDS011;49403;51.046;13.780;2022-11-20T00:53:28;26.50;;;12.05;;
63276;SDS011;49403;51.046;13.780;2022-11-20T00:53:59;26.67;;;12.20;;
63276;SDS011;49403;51.046;13.780;2022-11-20T00:54:32;23.20;;;11.60;;
63276;SDS011;49403;51.046;13.780;2022-11-20T00:55:02;27.73;;;12.32;;
63276;SDS011;49403;51.046;13.780;2022-11-20T00:55:34;26.80;;;12.30;;
63276;SDS011;49403;51.046;13.780;2022-11-20T00:56:06;26.45;;;11.98;;
63276;SDS011;49403;51.046;13.780;2022-11-20T00:56:39;25.23;;;11.85;;
63276;SDS011;49403;51.046;13.780;2022-11-20T00:57:10;23.95;;;12.05;;
63276;SDS011;49403;51.046;13.780;2022-11-20T00:57:41;24.55;;;11.10;;
63276;SDS011;49403;51.046;13.780;2022-11-20T00:58:11;23.92;;;11.55;;
63276;SDS011;49403;51.046;13.780;2022-11-20T00:58:43;22.60;;;11.07;;
63276;SDS011;49403;51.046;13.780;2022-11-20T00:59:15;24.00;;;11.23;;
63276;SDS011;49403;51.046;13.780;2022-11-20T00:59:46;22.45;;;11.02;;
63276;SDS011;49403;51.046;13.780;2022-11-20T01:00:17;25.92;;;10.52;;
63276;SDS011;49403;51.046;13.780;2022-11-20T01:00:48;23.75;;;11.05;;
63276;SDS011;49403;51.046;13.780;2022-11-20T01:01:20;26.33;;;11.02;;
63276;SDS011;49403;51.046;13.780;2022-11-20T01:01:54;22.70;;;10.93;;
63276;SDS011;49403;51.046;13.780;2022-11-20T01:02:24;24.67;;;11.45;;
63276;SDS011;49403;51.046;13.780;2022-11-20T01:02:55;30.48;;;10.90;;
63276;SDS011;49403;51.046;13.780;2022-11-20T01:03:26;25.23;;;11.48;;
63276;SDS011;49403;51.046;13.780;2022-11-20T01:03:57;24.17;;;11.20;;
63276;SDS011;49403;51.046;13.780;2022-11-20T01:04:29;23.08;;;10.63;;
63276;SDS011;49403;51.046;13.780;2022-11-20T01:05:00;24.60;;;11.30;;
63276;SDS011;49403;51.046;13.780;2022-11-20T01:05:33;26.42;;;10.48;;
63276;SDS011;49403;51.046;13.780;2022-11-20T01:06:06;23.25;;;10.93;;
63276;SDS011;49403;51.046;13.780;2022-11-20T01:06:41;23.63;;;11.40;;
63276;SDS011;49403;51.046;13.780;2022-11-20T01:07:12;24.40;;;10.85;;
63276;SDS011;49403;51.046;13.780;2022-11-20T01:07:43;24.52;;;11.50;;
63276;SDS011;49403;51.046;13.780;2022-11-20T01:08:14;23.92;;;11.23;;
63276;SDS011;49403;51.046;13.780;2022-11-20T01:08:44;23.52;;;11.50;;
63276;SDS011;49403;51.046;13.780;2022-11-20T01:09:16;24.55;;;11.15;;
63276;SDS011;49403;51.046;13.780;2022-11-20T01:09:47;24.00;;;10.98;;
63276;SDS011;49403;51.046;13.780;2022-11-20T01:10:17;26.65;;;11.50;;
63276;SDS011;49403;51.046;13.780;2022-11-20T01:10:48;25.17;;;11.43;;
63276;SDS011;49403;51.046;13.780;2022-11-20T01:11:25;26.95;;;11.50;;
63276;SDS011;49403;51.046;13.780;2022-11-20T01:11:57;23.95;;;11.52;;
63276;SDS011;49403;51.046;13.780;2022-11-20T01:12:29;25.05;;;11.40;;
63276;SDS011;49403;51.046;13.780;2022-11-20T01:12:59;24.42;;;11.38;;
63276;SDS011;49403;51.046;13.780;2022-11-20T01:13:49;25.60;;;10.70;;
63276;SDS011;49403;51.046;13.780;2022-11-20T01:14:21;25.33;;;11.43;;
63276;SDS011;49403;51.046;13.780;2022-11-20T01:14:52;25.63;;;11.13;;
63276;SDS011;49403;51.046;13.780;2022-11-20T01:15:22;22.50;;;10.88;;
63276;SDS011;49403;51.046;13.780;2022-11-20T01:15:53;21.40;;;10.60;;
63276;SDS011;49403;51.046;13.780;2022-11-20T01:16:25;28.88;;;11.95;;
63276;SDS011;49403;51.046;13.780;2022-11-20T01:16:57;22.77;;;11.38;;
63276;SDS011;49403;51.046;13.780;2022-11-20T01:17:28;26.48;;;11.07;;
63276;SDS011;49403;51.046;13.780;2022-11-20T01:18:00;23.58;;;10.80;;
63276;SDS011;49403;51.046;13.780;2022-11-20T01:18:31;23.30;;;10.95;;
63276;SDS011;49403;51.046;13.780;2022-11-20T01:19:06;23.98;;;11.23;;
63276;SDS011;49403;51.046;13.780;2022-11-20T01:19:40;21.10;;;10.48;;
63276;SDS011;49403;51.046;13.780;2022-11-20T01:20:10;22.95;;;10.73;;
63276;SDS011;49403;51.046;13.780;2022-11-20T01:20:41;26.63;;;11.15;;
63276;SDS011;49403;51.046;13.780;2022-11-20T01:21:15;22.10;;;11.07;;
63276;SDS011;49403;51.046;13.780;2022-11-20T01:21:49;25.67;;;11.23;;
63276;SDS011;49403;51.046;13.780;2022-11-20T01:22:22;21.98;;;10.95;;
63276;SDS011;49403;51.046;13.780;2022-11-20T01:22:52;25.35;;;11.23;;
63276;SDS011;49403;51.046;13.780;2022-11-20T01:23:23;22.70;;;11.25;;
63276;SDS011;49403;51.046;13.780;2022-11-20T01:23:54;21.40;;;10.70;;
63276;SDS011;49403;51.046;13.780;2022-11-20T01:24:25;22.58;;;11.32;;
63276;SDS011;49403;51.046;13.780;2022-11-20T01:24:56;25.98;;;11.63;;
63276;SDS011;49403;51.046;13.780;2022-11-20T01:25:26;22.02;;;10.73;;
63276;SDS011;49403;51.046;13.780;2022-11-20T01:25:58;25.17;;;11.15;;
63276;SDS011;49403;51.046;13.780;2022-11-20T01:26:32;25.67;;;11.13;;
63276;SDS011;49403;51.046;13.780;2022-11-20T01:27:07;22.80;;;10.80;;
63276;SDS011;49403;51.046;13.780;2022-11-20T01:27:38;23.13;;;10.95;;
63276;SDS011;49403;51.046;13.780;2022-11-20T01:28:09;25.00;;;10.20;;
63276;SDS011;49403;51.046;13.780;2022-11-20T01:28:40;24.10;;;10.77;;
63276;SDS011;49403;51.046;13.780;2022-11-20T01:29:15;25.23;;;11.25;;
63276;SDS011;49403;51.046;13.780;2022-11-20T01:29:47;23.55;;;11.10;;
63276;SDS011;49403;51.046;13.780;2022-11-20T01:30:18;25.50;;;11.52;;
63276;SDS011;49403;51.046;13.780;2022-11-20T01:30:49;23.27;;;10.73;;
63276;SDS011;49403;51.046;13.780;2022-11-20T01:31:23;23.70;;;10.98;;
63276;SDS011;49403;51.046;13.780;2022-11-20T01:31:58;22.60;;;10.75;;
63276;SDS011;49403;51.046;13.780;2022-11-20T01:32:29;22.55;;;11.30;;
63276;SDS011;49403;51.046;13.780;2022-11-20T01:32:59;24.60;;;10.95;;
63276;SDS011;49403;51.046;13.780;2022-11-20T01:33:30;24.27;;;11.93;;
63276;SDS011;49403;51.046;13.780;2022-11-20T01:34:05;24.20;;;10.98;;
63276;SDS011;49403;51.046;13.780;2022-11-20T01:34:37;21.98;;;11.23;;
63276;SDS011;49403;51.046;13.780;2022-11-20T01:35:08;23.70;;;11.02;;
63276;SDS011;49403;51.046;13.780;2022-11-20T01:35:39;25.92;;;11.30;;
63276;SDS011;49403;51.046;13.780;2022-11-20T01:36:10;25.77;;;11.73;;
63276;SDS011;49403;51.046;13.780;2022-11-20T01:36:42;25.13;;;11.63;;
63276;SDS011;49403;51.046;13.780;2022-11-20T01:37:14;22.90;;;10.90;;
63276;SDS011;49403;51.046;13.780;2022-11-20T01:37:44;25.15;;;11.15;;
63276;SDS011;49403;51.046;13.780;2022-11-20T01:38:16;23.08;;;11.13;;
63276;SDS011;49403;51.046;13.780;2022-11-20T01:38:47;23.67;;;11.15;;
63276;SDS011;49403;51.046;13.780;2022-11-20T01:39:24;22.02;;;10.80;;
63276;SDS011;49403;51.046;13.780;2022-11-20T01:39:55;23.17;;;11.40;;
63276;SDS011;49403;51.046;13.780;2022-11-20T01:40:26;25.00;;;10.60;;
63276;SDS011;49403;51.046;13.780;2022-11-20T01:40:57;25.25;;;11.30;;
63276;SDS011;49403;51.046;13.780;2022-11-20T01:41:29;24.35;;;11.00;;
63276;SDS011;49403;51.046;13.780;2022-11-20T01:42:19;23.38;;;10.90;;
63276;SDS011;49403;51.046;13.780;2022-11-20T01:43:18;23.15;;;10.15;;
63276;SDS011;49403;51.046;13.780;2022-11-20T01:43:52;22.92;;;10.52;;
63276;SDS011;49403;51.046;13.780;2022-11-20T01:46:23;22.30;;;9.80;;
63276;SDS011;49403;51.046;13.780;2022-11-20T01:46:58;23.55;;;10.02;;
63276;SDS011;49403;51.046;13.780;2022-11-20T01:47:33;25.27;;;10.50;;
63276;SDS011;49403;51.046;13.780;2022-11-20T01:48:10;22.20;;;10.32;;
63276;SDS011;49403;51.046;13.780;2022-11-20T01:49:31;20.45;;;10.23;;
63276;SDS011;49403;51.046;13.780;2022-11-20T01:50:17;22.98;;;10.57;;
63276;SDS011;49403;51.046;13.780;2022-11-20T01:50:56;23.25;;;10.18;;
63276;SDS011;49403;51.046;13.780;2022-11-20T01:52:18;24.85;;;10.40;;
63276;SDS011;49403;51.046;13.780;2022-11-20T01:53:00;22.65;;;10.23;;
63276;SDS011;49403;51.046;13.780;2022-11-20T01:53:34;24.73;;;9.73;;
63276;SDS011;49403;51.046;13.780;2022-11-20T01:54:08;24.13;;;10.07;;
63276;SDS011;49403;51.046;13.780;2022-11-20T01:54:49;23.48;;;10.63;;
63276;SDS011;49403;51.046;13.780;2022-11-20T01:55:28;22.17;;;10.43;;
63276;SDS011;49403;51.046;13.780;2022-11-20T01:56:02;26.23;;;10.80;;
63276;SDS011;49403;51.046;13.780;2022-11-20T01:56:38;23.33;;;10.50;;
63276;SDS011;49403;51.046;13.780;2022-11-20T01:57:11;22.38;;;10.45;;
63276;SDS011;49403;51.046;13.780;2022-11-20T01:57:43;21.75;;;10.82;;
63276;SDS011;49403;51.046;13.780;2022-11-20T01:58:15;24.67;;;10.95;;
63276;SDS011;49403;51.046;13.780;2022-11-20T01:58:49;25.10;;;11.15;;
63276;SDS011;49403;51.046;13.780;2022-11-20T01:59:23;25.95;;;11.15;;
63276;SDS011;49403;51.046;13.780;2022-11-20T02:00:12;23.35;;;10.75;;
63276;SDS011;49403;51.046;13.780;2022-11-20T02:00:46;28.45;;;10.80;;
63276;SDS011;49403;51.046;13.780;2022-11-20T02:01:17;21.13;;;10.30;;
63276;SDS011;49403;51.046;13.780;2022-11-20T02:01:47;21.67;;;10.68;;
63276;SDS011;49403;51.046;13.780;2022-11-20T02:02:19;20.85;;;10.18;;
63276;SDS011;49403;51.046;13.780;2022-11-20T02:02:54;26.10;;;11.02;;
63276;SDS011;49403;51.046;13.780;2022-11-20T02:03:28;23.98;;;10.73;;
63276;SDS011;49403;51.046;13.780;2022-11-20T02:03:59;21.33;;;10.52;;
63276;SDS011;49403;51.046;13.780;2022-11-20T02:04:31;21.73;;;10.43;;
63276;SDS011;49403;51.046;13.780;2022-11-20T02:05:04;22.70;;;10.77;;
63276;SDS011;49403;51.046;13.780;2022-11-20T02:06:30;22.38;;;10.57;;
63276;SDS011;49403;51.046;13.780;2022-11-20T02:07:05;22.73;;;10.70;;
63276;SDS011;49403;51.046;13.780;2022-11-20T02:07:36;22.17;;;10.38;;
63276;SDS011;49403;51.046;13.780;2022-11-20T02:08:07;25.25;;;11.20;;
63276;SDS011;49403;51.046;13.780;2022-11-20T02:08:38;25.35;;;11.18;;
63276;SDS011;49403;51.046;13.780;2022-11-20T02:09:09;24.23;;;10.85;;
63276;SDS011;49403;51.046;13.780;2022-11-20T02:09:41;24.23;;;11.18;;
63276;SDS011;49403;51.046;13.780;2022-11-20T02:10:12;24.75;;;11.65;;
63276;SDS011;49403;51.046;13.780;2022-11-20T02:10:43;22.30;;;10.77;;
63276;SDS011;49403;51.046;13.780;2022-11-20T02:11:13;23.92;;;11.18;;
63276;SDS011;49403;51.046;13.780;2022-11-20T02:11:44;22.50;;;10.70;;
63276;SDS011;49403;51.046;13.780;2022-11-20T02:12:15;23.48;;;10.77;;
63276;SDS011;49403;51.046;13.780;2022-11-20T02:13:05;23.38;;;10.60;;
63276;SDS011;49403;51.046;13.780;2022-11-20T02:13:54;21.50;;;9.77;;
63276;SDS011;49403;51.046;13.780;2022-11-20T02:14:25;22.92;;;10.32;;
63276;SDS011;49403;51.046;13.780;2022-11-20T02:14:57;22.48;;;10.93;;
63276;SDS011;49403;51.046;13.780;2022-11-20T02:15:28;25.08;;;11.27;;
63276;SDS011;49403;51.046;13.780;2022-11-20T02:15:58;22.50;;;11.18;;
63276;SDS011;49403;51.046;13.780;2022-11-20T02:16:31;24.50;;;10.75;;
63276;SDS011;49403;51.046;13.780;2022-11-20T02:17:05;24.67;;;11.15;;
63276;SDS011;49403;51.046;13.780;2022-11-20T02:17:36;26.33;;;10.75;;
63276;SDS011;49403;51.046;13.780;2022-11-20T02:18:07;21.83;;;10.98;;
63276;SDS011;49403;51.046;13.780;2022-11-20T02:18:40;27.17;;;11.52;;
63276;SDS011;49403;51.046;13.780;2022-11-20T02:19:16;24.08;;;11.07;;
63276;SDS011;49403;51.046;13.780;2022-11-20T02:19:58;22.98;;;10.32;;
63276;SDS011;49403;51.046;13.780;2022-11-20T02:20:28;21.50;;;10.05;;
63276;SDS011;49403;51.046;13.780;2022-11-20T02:21:05;23.92;;;11.00;;
63276;SDS011;49403;51.046;13.780;2022-11-20T02:22:02;24.27;;;11.10;;
63276;SDS011;49403;51.046;13.780;2022-11-20T02:23:39;20.83;;;10.05;;
63276;SDS011;49403;51.046;13.780;2022-11-20T02:24:32;20.90;;;9.82;;
63276;SDS011;49403;51.046;13.780;2022-11-20T02:25:03;22.05;;;9.77;;
63276;SDS011;49403;51.046;13.780;2022-11-20T02:25:35;22.15;;;9.95;;
63276;SDS011;49403;51.046;13.780;2022-11-20T02:26:09;23.13;;;10.77;;
63276;SDS011;49403;51.046;13.780;2022-11-20T02:26:47;22.10;;;10.05;;
63276;SDS011;49403;51.046;13.780;2022-11-20T02:27:37;20.83;;;9.65;;
63276;SDS011;49403;51.046;13.780;2022-11-20T02:28:07;23.70;;;11.00;;
63276;SDS011;49403;51.046;13.780;2022-11-20T02:28:39;24.65;;;11.13;;
63276;SDS011;49403;51.046;13.780;2022-11-20T02:29:10;21.45;;;10.05;;
63276;SDS011;49403;51.046;13.780;2022-11-20T02:29:42;23.35;;;10.80;;
63276;SDS011;49403;51.046;13.780;2022-11-20T02:30:26;21.17;;;10.10;;
63276;SDS011;49403;51.046;13.780;2022-11-20T02:30:57;21.42;;;10.40;;
63276;SDS011;49403;51.046;13.780;2022-11-20T02:31:28;21.33;;;10.27;;
63276;SDS011;49403;51.046;13.780;2022-11-20T02:31:59;23.80;;;10.45;;
63276;SDS011;49403;51.046;13.780;2022-11-20T02:32:33;24.00;;;11.00;;
63276;SDS011;49403;51.046;13.780;2022-11-20T02:33:04;25.58;;;10.75;;
63276;SDS011;49403;51.046;13.780;2022-11-20T02:33:35;23.02;;;10.82;;
63276;SDS011;49403;51.046;13.780;2022-11-20T02:34:06;22.67;;;10.65;;
63276;SDS011;49403;51.046;13.780;2022-11-20T02:34:37;20.58;;;11.00;;
63276;SDS011;49403;51.046;13.780;2022-11-20T02:35:09;25.58;;;10.95;;
63276;SDS011;49403;51.046;13.780;2022-11-20T02:36:00;24.42;;;11.05;;
63276;SDS011;49403;51.046;13.780;2022-11-20T02:36:31;28.20;;;11.07;;
63276;SDS011;49403;51.046;13.780;2022-11-20T02:37:04;19.75;;;9.85;;
63276;SDS011;49403;51.046;13.780;2022-11-20T02:37:36;21.35;;;10.30;;
63276;SDS011;49403;51.046;13.780;2022-11-20T02:38:10;21.90;;;11.25;;
63276;SDS011;49403;51.046;13.780;2022-11-20T02:38:41;21.83;;;10.32;;
63276;SDS011;49403;51.046;13.780;2022-11-20T02:39:13;24.45;;;10.90;;
63276;SDS011;49403;51.046;13.780;2022-11-20T02:39:47;21.30;;;10.52;;
63276;SDS011;49403;51.046;13.780;2022-11-20T02:40:20;21.63;;;10.25;;
63276;SDS011;49403;51.046;13.780;2022-11-20T02:40:51;21.83;;;10.32;;
63276;SDS011;49403;51.046;13.780;2022-11-20T02:41:30;24.83;;;10.82;;
63276;SDS011;49403;51.046;13.780;2022-11-20T02:42:05;22.60;;;10.38;;
63276;SDS011;49403;51.046;13.780;2022-11-20T02:42:36;25.67;;;10.93;;
63276;SDS011;49403;51.046;13.780;2022-11-20T02:43:08;21.30;;;10.77;;
63276;SDS011;49403;51.046;13.780;2022-11-20T02:43:39;22.10;;;10.55;;
63276;SDS011;49403;51.046;13.780;2022-11-20T02:44:10;24.13;;;10.35;;
63276;SDS011;49403;51.046;13.780;2022-11-20T02:44:41;25.02;;;11.02;;
63276;SDS011;49403;51.046;13.780;2022-11-20T02:45:12;23.25;;;10.50;;
63276;SDS011;49403;51.046;13.780;2022-11-20T02:45:42;21.63;;;10.63;;
63276;SDS011;49403;51.046;13.780;2022-11-20T02:46:13;26.83;;;11.50;;
63276;SDS011;49403;51.046;13.780;2022-11-20T02:46:44;23.90;;;10.88;;
63276;SDS011;49403;51.046;13.780;2022-11-20T02:47:15;22.77;;;10.38;;
63276;SDS011;49403;51.046;13.780;2022-11-20T02:47:46;21.02;;;10.05;;
63276;SDS011;49403;51.046;13.780;2022-11-20T02:48:16;26.08;;;10.60;;
63276;SDS011;49403;51.046;13.780;2022-11-20T02:48:47;23.60;;;10.60;;
63276;SDS011;49403;51.046;13.780;2022-11-20T02:49:18;21.98;;;10.70;;
63276;SDS011;49403;51.046;13.780;2022-11-20T02:49:49;24.27;;;10.82;;
63276;SDS011;49403;51.046;13.780;2022-11-20T02:50:20;23.58;;;10.65;;
63276;SDS011;49403;51.046;13.780;2022-11-20T02:50:51;19.67;;;9.68;;
63276;SDS011;49403;51.046;13.780;2022-11-20T02:51:21;24.58;;;10.85;;
63276;SDS011;49403;51.046;13.780;2022-11-20T02:51:53;22.70;;;10.52;;
63276;SDS011;49403;51.046;13.780;2022-11-20T02:52:24;22.35;;;10.43;;
63276;SDS011;49403;51.046;13.780;2022-11-20T02:52:55;25.35;;;11.10;;
63276;SDS011;49403;51.046;13.780;2022-11-20T02:53:26;21.85;;;10.48;;
63276;SDS011;49403;51.046;13.780;2022-11-20T02:53:57;21.83;;;10.88;;
63276;SDS011;49403;51.046;13.780;2022-11-20T02:54:28;22.98;;;10.75;;
63276;SDS011;49403;51.046;13.780;2022-11-20T02:54:58;22.55;;;10.52;;
63276;SDS011;49403;51.046;13.780;2022-11-20T02:55:29;22.52;;;10.75;;
63276;SDS011;49403;51.046;13.780;2022-11-20T02:56:00;21.30;;;10.35;;
63276;SDS011;49403;51.046;13.780;2022-11-20T02:56:31;23.60;;;10.57;;
63276;SDS011;49403;51.046;13.780;2022-11-20T02:57:02;23.73;;;10.80;;
63276;SDS011;49403;51.046;13.780;2022-11-20T02:57:33;26.02;;;11.15;;
63276;SDS011;49403;51.046;13.780;2022-11-20T02:58:04;22.75;;;11.07;;
63276;SDS011;49403;51.046;13.780;2022-11-20T02:58:34;22.05;;;10.50;;
63276;SDS011;49403;51.046;13.780;2022-11-20T02:59:05;21.23;;;10.48;;
63276;SDS011;49403;51.046;13.780;2022-11-20T02:59:36;24.63;;;10.55;;
63276;SDS011;49403;51.046;13.780;2022-11-20T03:00:07;22.38;;;10.60;;
63276;SDS011;49403;51.046;13.780;2022-11-20T03:00:38;25.95;;;10.95;;
63276;SDS011;49403;51.046;13.780;2022-11-20T03:01:09;35.47;;;10.98;;
63276;SDS011;49403;51.046;13.780;2022-11-20T03:01:40;21.40;;;10.50;;
63276;SDS011;49403;51.046;13.780;2022-11-20T03:02:10;23.63;;;10.77;;
63276;SDS011;49403;51.046;13.780;2022-11-20T03:02:41;23.23;;;10.70;;
63276;SDS011;49403;51.046;13.780;2022-11-20T03:03:12;28.08;;;11.18;;
63276;SDS011;49403;51.046;13.780;2022-11-20T03:03:43;24.02;;;10.55;;
63276;SDS011;49403;51.046;13.780;2022-11-20T03:04:14;22.40;;;10.00;;
63276;SDS011;49403;51.046;13.780;2022-11-20T03:04:44;25.27;;;11.05;;
63276;SDS011;49403;51.046;13.780;2022-11-20T03:05:15;24.80;;;10.63;;
63276;SDS011;49403;51.046;13.780;2022-11-20T03:05:46;22.67;;;10.05;;
63276;SDS011;49403;51.046;13.780;2022-11-20T03:06:16;21.83;;;10.18;;
63276;SDS011;49403;51.046;13.780;2022-11-20T03:06:47;25.52;;;10.90;;
63276;SDS011;49403;51.046;13.780;2022-11-20T03:07:18;23.52;;;10.52;;
63276;SDS011;49403;51.046;13.780;2022-11-20T03:07:49;22.80;;;10.43;;
63276;SDS011;49403;51.046;13.780;2022-11-20T03:08:19;27.40;;;10.90;;
63276;SDS011;49403;51.046;13.780;2022-11-20T03:08:50;21.83;;;10.20;;
63276;SDS011;49403;51.046;13.780;2022-11-20T03:09:21;23.10;;;10.68;;
63276;SDS011;49403;51.046;13.780;2022-11-20T03:09:52;23.02;;;10.48;;
63276;SDS011;49403;51.046;13.780;2022-11-20T03:10:22;23.38;;;10.57;;
63276;SDS011;49403;51.046;13.780;2022-11-20T03:10:53;24.23;;;10.98;;
63276;SDS011;49403;51.046;13.780;2022-11-20T03:11:24;23.83;;;10.52;;
63276;SDS011;49403;51.046;13.780;2022-11-20T03:11:55;22.00;;;10.15;;
63276;SDS011;49403;51.046;13.780;2022-11-20T03:12:26;20.48;;;9.85;;
63276;SDS011;49403;51.046;13.780;2022-11-20T03:12:56;21.27;;;10.13;;